createdAt,value
2019-04-29T00:00:08.939Z,89.61
2019-04-29T00:02:38.410Z,89.64
2019-04-29T00:05:09.472Z,89.70
2019-04-29T00:07:39.114Z,90.10
2019-04-29T00:10:10.469Z,89.44
2019-04-29T00:12:40.105Z,89.63
2019-04-29T00:15:11.509Z,90.19
2019-04-29T00:17:42.571Z,90.30
2019-04-29T00:20:22.985Z,90.40
2019-04-29T00:22:52.342Z,89.76
2019-04-29T00:25:21.838Z,90.14
2019-04-29T00:27:51.340Z,89.83
2019-04-29T00:30:22.349Z,90.30
2019-04-29T00:32:51.884Z,91.40
2019-04-29T00:35:21.553Z,90.67
2019-04-29T00:37:55.386Z,90.00
2019-04-29T00:40:41.808Z,90.08
2019-04-29T00:46:08.020Z,90.48
2019-04-29T00:48:37.586Z,90.31
2019-04-29T00:51:07.276Z,90.30
2019-04-29T00:53:37.298Z,90.33
2019-04-29T00:56:06.730Z,90.25
2019-04-29T00:58:36.128Z,90.29
2019-04-29T01:01:10.258Z,90.26
2019-04-29T01:03:41.265Z,90.30
2019-04-29T01:06:10.899Z,90.16
2019-04-29T01:08:40.314Z,90.11
2019-04-29T01:11:09.954Z,90.27
2019-04-29T01:13:39.371Z,90.50
2019-04-29T01:16:08.845Z,90.63
2019-04-29T01:18:38.554Z,90.57
2019-04-29T01:21:08.026Z,90.53
2019-04-29T01:23:37.454Z,90.43
2019-04-29T01:26:25.472Z,90.24
2019-04-29T01:28:59.569Z,90.21
2019-04-29T01:31:30.851Z,90.38
2019-04-29T01:34:02.168Z,90.23
2019-04-29T01:36:39.541Z,90.46
2019-04-29T01:39:11.307Z,90.68
2019-04-29T01:41:59.066Z,90.68
2019-04-29T01:44:30.437Z,90.64
2019-04-29T01:46:59.845Z,90.60
2019-04-29T01:49:29.380Z,90.64
2019-04-29T01:51:58.779Z,90.60
2019-04-29T01:54:28.268Z,90.36
2019-04-29T01:56:57.666Z,90.41
2019-04-29T01:59:27.366Z,90.47
2019-04-29T02:01:56.777Z,90.52
2019-04-29T02:04:27.811Z,90.58
2019-04-29T02:06:57.316Z,90.51
2019-04-29T02:09:28.390Z,90.69
2019-04-29T02:11:57.839Z,90.54
2019-04-29T02:14:27.272Z,90.51
2019-04-29T02:16:56.707Z,90.50
2019-04-29T02:19:26.132Z,90.51
2019-04-29T02:22:12.156Z,90.46
2019-04-29T02:24:49.198Z,90.51
2019-04-29T02:27:18.639Z,90.61
2019-04-29T02:29:48.129Z,90.51
2019-04-29T02:32:19.103Z,90.35
2019-04-29T02:34:48.704Z,90.45
2019-04-29T02:37:19.758Z,90.57
2019-04-29T02:39:53.938Z,90.54
2019-04-29T02:42:39.779Z,90.56
2019-04-29T02:45:11.484Z,90.58
2019-04-29T02:47:41.116Z,90.62
2019-04-29T02:50:10.730Z,90.68
2019-04-29T02:52:40.165Z,90.90
2019-04-29T02:55:11.822Z,91.00
2019-04-29T02:57:44.461Z,91.01
2019-04-29T03:00:18.986Z,91.07
2019-04-29T03:02:50.194Z,91.04
2019-04-29T03:05:27.556Z,91.09
2019-04-29T03:07:57.090Z,91.07
2019-04-29T03:10:26.494Z,91.02
2019-04-29T03:12:55.954Z,91.01
2019-04-29T03:15:31.689Z,90.92
2019-04-29T03:18:01.706Z,90.83
2019-04-29T03:20:33.128Z,90.80
2019-04-29T03:23:10.646Z,90.70
2019-04-29T03:25:40.061Z,90.80
2019-04-29T03:28:09.653Z,90.83
2019-04-29T03:30:39.187Z,91.03
2019-04-29T03:33:09.092Z,91.14
2019-04-29T03:35:38.492Z,91.05
2019-04-29T03:38:08.004Z,91.00
2019-04-29T03:40:37.830Z,91.12
2019-04-29T03:43:07.241Z,91.28
2019-04-29T03:45:36.714Z,91.04
2019-04-29T03:48:06.405Z,90.69
2019-04-29T03:50:35.977Z,90.36
2019-04-29T03:53:05.392Z,90.41
2019-04-29T03:55:39.953Z,90.23
2019-04-29T03:58:06.162Z,90.17
2019-04-29T04:00:35.786Z,90.13
2019-04-29T04:03:09.568Z,90.29
2019-04-29T04:05:43.573Z,90.32
2019-04-29T04:11:00.439Z,90.45
2019-04-29T04:13:29.860Z,90.57
2019-04-29T04:15:59.464Z,90.82
2019-04-29T04:18:30.828Z,90.84
2019-04-29T04:21:00.269Z,90.86
2019-04-29T04:23:29.712Z,90.65
2019-04-29T04:25:59.157Z,90.77
2019-04-29T04:28:28.652Z,90.60
2019-04-29T04:30:58.145Z,90.57
2019-04-29T04:33:29.127Z,90.63
2019-04-29T04:35:58.572Z,90.61
2019-04-29T04:38:27.997Z,90.72
2019-04-29T04:40:59.607Z,90.81
2019-04-29T04:43:29.311Z,90.91
2019-04-29T04:45:59.040Z,90.98
2019-04-29T04:48:28.625Z,90.93
2019-04-29T04:50:58.062Z,90.94
2019-04-29T04:53:27.499Z,91.08
2019-04-29T04:56:02.098Z,91.36
2019-04-29T04:58:32.296Z,91.66
2019-04-29T05:01:01.744Z,91.70
2019-04-29T05:03:31.232Z,91.45
2019-04-29T05:06:00.739Z,91.23
2019-04-29T05:08:30.170Z,90.38
2019-04-29T05:10:59.810Z,88.76
2019-04-29T05:13:29.441Z,89.22
2019-04-29T05:15:58.866Z,89.16
2019-04-29T05:18:28.286Z,88.25
2019-04-29T05:20:57.689Z,88.24
2019-04-29T05:23:27.185Z,87.47
2019-04-29T05:25:56.594Z,86.96
2019-04-29T05:28:26.011Z,85.76
2019-04-29T05:30:55.403Z,84.66
2019-04-29T05:33:25.005Z,84.34
2019-04-29T05:36:03.723Z,84.11
2019-04-29T05:38:40.677Z,83.58
2019-04-29T05:41:10.345Z,82.25
2019-04-29T05:43:44.283Z,83.42
2019-04-29T05:46:30.174Z,83.30
2019-04-29T05:49:02.343Z,82.83
2019-04-29T05:51:32.775Z,82.05
2019-04-29T05:54:09.969Z,80.41
2019-04-29T05:56:39.551Z,80.73
2019-04-29T05:59:12.911Z,72.91
2019-04-29T06:01:42.855Z,75.21
2019-04-29T06:04:16.439Z,70.91
2019-04-29T06:06:43.934Z,73.65
2019-04-29T06:09:16.945Z,74.61
2019-04-29T06:11:44.635Z,76.30
2019-04-29T06:14:14.291Z,76.48
2019-04-29T06:16:43.973Z,78.35
2019-04-29T06:19:13.429Z,78.39
2019-04-29T06:21:42.980Z,80.12
2019-04-29T06:24:12.426Z,80.01
2019-04-29T06:26:43.761Z,80.55
2019-04-29T06:29:13.995Z,79.67
2019-04-29T06:31:43.486Z,80.10
2019-04-29T06:34:12.997Z,79.42
2019-04-29T06:36:42.429Z,79.01
2019-04-29T06:39:13.478Z,77.70
2019-04-29T06:41:45.088Z,77.16
2019-04-29T06:44:17.024Z,77.86
2019-04-29T06:46:50.184Z,77.00
2019-04-29T06:49:19.145Z,76.59
2019-04-29T06:51:48.542Z,77.30
2019-04-29T06:54:17.985Z,76.79
2019-04-29T06:56:47.393Z,74.85
2019-04-29T06:59:17.092Z,76.09
2019-04-29T07:01:48.011Z,76.15
2019-04-29T07:04:18.174Z,75.79
2019-04-29T07:06:57.247Z,75.23
2019-04-29T07:09:18.716Z,77.05
2019-04-29T07:11:48.122Z,78.04
2019-04-29T07:14:17.786Z,77.34
2019-04-29T07:16:47.330Z,78.49
2019-04-29T07:19:16.797Z,78.40
2019-04-29T07:21:47.083Z,78.77
2019-04-29T07:24:20.422Z,78.44
2019-04-29T07:26:50.025Z,77.43
2019-04-29T07:29:20.015Z,77.62
2019-04-29T07:31:49.766Z,77.58
2019-04-29T07:34:19.199Z,77.45
2019-04-29T07:36:48.624Z,76.17
2019-04-29T07:39:18.197Z,76.89
2019-04-29T07:41:49.489Z,75.66
2019-04-29T07:44:19.996Z,76.54
2019-04-29T07:47:02.084Z,75.89
2019-04-29T07:49:30.004Z,74.14
2019-04-29T07:51:59.417Z,73.96
2019-04-29T07:54:29.049Z,73.76
2019-04-29T07:56:58.458Z,74.14
2019-04-29T07:59:28.002Z,75.13
2019-04-29T08:01:59.901Z,75.32
2019-04-29T08:04:28.649Z,75.79
2019-04-29T08:06:58.415Z,76.40
2019-04-29T08:09:28.108Z,74.73
2019-04-29T08:11:58.676Z,74.89
2019-04-29T08:14:30.604Z,77.73
2019-04-29T08:17:00.009Z,76.01
2019-04-29T08:19:31.562Z,75.49
2019-04-29T08:22:01.255Z,74.48
2019-04-29T08:24:30.731Z,73.32
2019-04-29T08:27:00.365Z,73.52
2019-04-29T08:29:30.793Z,72.14
2019-04-29T08:32:02.507Z,72.54
2019-04-29T08:34:32.109Z,70.42
2019-04-29T08:37:03.079Z,71.01
2019-04-29T08:39:32.484Z,74.75
2019-04-29T08:42:08.719Z,76.23
2019-04-29T08:44:38.027Z,77.62
2019-04-29T08:47:18.249Z,76.66
2019-04-29T08:49:48.546Z,73.80
2019-04-29T08:52:18.023Z,75.23
2019-04-29T08:54:50.694Z,72.94
2019-04-29T08:57:19.467Z,74.03
2019-04-29T08:59:48.906Z,73.12
2019-04-29T09:02:33.101Z,73.41
2019-04-29T09:04:53.667Z,71.48
2019-04-29T09:07:22.166Z,71.93
2019-04-29T09:09:56.007Z,72.03
2019-04-29T09:12:29.022Z,71.33
2019-04-29T09:14:55.921Z,72.78
2019-04-29T09:17:25.367Z,72.15
2019-04-29T09:19:54.847Z,73.97
2019-04-29T09:22:26.021Z,73.61
2019-04-29T09:25:16.473Z,73.54
2019-04-29T09:27:46.483Z,71.60
2019-04-29T09:30:17.195Z,69.38
2019-04-29T09:32:46.702Z,74.56
2019-04-29T09:35:16.352Z,70.69
2019-04-29T09:37:45.786Z,71.11
2019-04-29T09:40:17.756Z,71.39
2019-04-29T09:42:57.020Z,72.01
2019-04-29T09:45:27.636Z,70.85
2019-04-29T09:48:02.358Z,71.45
2019-04-29T09:50:34.297Z,72.40
2019-04-29T09:53:03.078Z,72.07
2019-04-29T09:55:35.687Z,72.26
2019-04-29T09:58:03.841Z,71.93
2019-04-29T10:00:40.666Z,73.70
2019-04-29T10:03:27.303Z,73.83
2019-04-29T10:06:13.517Z,73.64
2019-04-29T10:08:42.964Z,72.38
2019-04-29T10:11:12.720Z,72.33
2019-04-29T10:13:42.164Z,75.19
2019-04-29T10:16:13.351Z,72.18
2019-04-29T10:18:47.371Z,72.45
2019-04-29T10:21:21.249Z,72.43
2019-04-29T10:23:49.378Z,71.23
2019-04-29T10:26:18.873Z,69.54
2019-04-29T10:29:02.350Z,69.71
2019-04-29T10:31:32.030Z,68.61
2019-04-29T10:34:01.462Z,69.43
2019-04-29T10:36:31.077Z,71.61
2019-04-29T10:39:03.177Z,67.24
2019-04-29T10:41:36.122Z,69.21
2019-04-29T10:44:14.547Z,66.16
2019-04-29T10:46:47.129Z,65.55
2019-04-29T10:49:18.393Z,67.43
2019-04-29T10:51:47.950Z,66.23
2019-04-29T10:54:17.442Z,69.37
2019-04-29T10:56:47.417Z,69.74
2019-04-29T10:59:17.057Z,69.46
2019-04-29T11:02:16.603Z,73.34
2019-04-29T11:04:48.058Z,74.44
2019-04-29T11:07:33.498Z,73.57
2019-04-29T11:10:25.192Z,74.67
2019-04-29T11:12:55.169Z,75.72
2019-04-29T11:15:29.384Z,73.54
2019-04-29T11:17:59.778Z,74.02
2019-04-29T11:20:29.461Z,72.47
2019-04-29T11:23:09.187Z,73.71
2019-04-29T11:25:42.572Z,74.83
2019-04-29T11:28:16.045Z,74.34
2019-04-29T11:30:43.473Z,76.25
2019-04-29T11:33:24.591Z,77.13
2019-04-29T11:36:03.976Z,76.76
2019-04-29T11:38:36.059Z,75.28
2019-04-29T11:41:04.156Z,74.95
2019-04-29T11:43:34.025Z,74.99
2019-04-29T11:46:03.864Z,76.48
2019-04-29T11:48:33.280Z,76.89
2019-04-29T11:51:13.736Z,77.50
2019-04-29T11:53:45.054Z,78.54
2019-04-29T11:56:14.565Z,77.83
2019-04-29T11:58:46.501Z,77.68
2019-04-29T12:01:38.820Z,75.27
2019-04-29T12:04:19.589Z,77.07
2019-04-29T12:06:51.181Z,76.65
2019-04-29T12:09:20.748Z,77.45
2019-04-29T12:11:50.420Z,78.49
2019-04-29T12:14:24.933Z,77.50
2019-04-29T12:16:59.522Z,78.46
2019-04-29T12:19:38.995Z,78.52
2019-04-29T12:22:09.285Z,78.51
2019-04-29T12:24:39.710Z,78.59
2019-04-29T12:27:14.854Z,78.67
2019-04-29T12:29:42.046Z,79.44
2019-04-29T12:32:13.250Z,78.76
2019-04-29T12:34:47.372Z,79.41
2019-04-29T12:37:18.691Z,78.50
2019-04-29T12:39:56.067Z,79.83
2019-04-29T12:42:43.269Z,78.71
2019-04-29T12:45:19.410Z,79.21
2019-04-29T12:47:48.805Z,78.52
2019-04-29T12:50:21.771Z,79.97
2019-04-29T12:52:49.722Z,80.02
2019-04-29T12:55:39.300Z,81.25
2019-04-29T12:57:51.955Z,80.36
2019-04-29T13:00:23.482Z,81.64
2019-04-29T13:05:58.250Z,80.00
2019-04-29T13:08:25.491Z,79.47
2019-04-29T13:10:56.595Z,79.65
2019-04-29T13:13:26.091Z,81.41
2019-04-29T13:16:06.357Z,80.21
2019-04-29T13:18:55.722Z,79.57
2019-04-29T13:21:25.406Z,81.09
2019-04-29T13:24:12.186Z,79.73
2019-04-29T13:26:28.763Z,80.99
2019-04-29T13:29:01.115Z,81.57
2019-04-29T13:31:38.007Z,79.91
2019-04-29T13:34:14.717Z,79.15
2019-04-29T13:36:32.739Z,79.29
2019-04-29T13:39:02.250Z,77.28
2019-04-29T13:41:31.756Z,78.42
2019-04-29T13:44:05.792Z,79.00
2019-04-29T13:46:41.019Z,77.95
2019-04-29T13:49:21.088Z,79.88
2019-04-29T13:51:52.288Z,80.20
2019-04-29T13:54:21.917Z,80.36
2019-04-29T13:56:57.070Z,79.98
2019-04-29T13:59:49.047Z,79.65
2019-04-29T14:02:31.346Z,80.93
2019-04-29T14:05:00.195Z,81.44
2019-04-29T14:07:29.444Z,82.01
2019-04-29T14:09:58.862Z,82.17
2019-04-29T14:15:00.293Z,82.08
2019-04-29T14:17:31.735Z,80.79
2019-04-29T14:20:01.187Z,81.15
2019-04-29T14:22:30.801Z,81.95
2019-04-29T14:25:01.730Z,81.00
2019-04-29T14:27:31.158Z,81.88
2019-04-29T14:30:02.941Z,81.64
2019-04-29T14:32:34.797Z,81.76
2019-04-29T14:35:07.187Z,82.89
2019-04-29T14:37:35.751Z,82.84
2019-04-29T14:40:09.233Z,82.25
2019-04-29T14:42:58.082Z,82.55
2019-04-29T14:45:43.603Z,82.82
2019-04-29T14:48:14.757Z,82.35
2019-04-29T14:50:49.560Z,83.04
2019-04-29T14:53:19.507Z,83.13
2019-04-29T14:55:48.360Z,83.18
2019-04-29T14:58:19.410Z,82.92
2019-04-29T15:00:51.113Z,82.32
2019-04-29T15:03:22.454Z,82.40
2019-04-29T15:05:52.000Z,82.30
2019-04-29T15:08:23.262Z,82.18
2019-04-29T15:10:54.068Z,82.78
2019-04-29T15:13:24.808Z,82.33
2019-04-29T15:16:09.628Z,82.75
2019-04-29T15:18:49.027Z,81.75
2019-04-29T15:21:33.286Z,82.00
2019-04-29T15:24:03.013Z,82.94
2019-04-29T15:26:32.649Z,83.18
2019-04-29T15:29:02.163Z,83.36
2019-04-29T15:31:31.622Z,83.12
2019-04-29T15:34:01.129Z,82.54
2019-04-29T15:36:34.537Z,80.81
2019-04-29T15:39:09.848Z,81.41
2019-04-29T15:41:33.546Z,80.67
2019-04-29T15:44:07.427Z,80.89
2019-04-29T15:46:46.116Z,81.29
2019-04-29T15:49:05.868Z,80.58
2019-04-29T15:51:35.281Z,80.43
2019-04-29T15:54:09.354Z,80.56
2019-04-29T15:56:38.630Z,80.23
2019-04-29T15:59:08.962Z,79.52
2019-04-29T16:01:41.345Z,79.74
2019-04-29T16:04:12.666Z,80.14
2019-04-29T16:06:45.254Z,79.13
2019-04-29T16:09:30.456Z,78.66
2019-04-29T16:12:17.700Z,79.18
2019-04-29T16:14:49.179Z,79.60
2019-04-29T16:17:20.608Z,78.82
2019-04-29T16:19:49.611Z,79.40
2019-04-29T16:22:20.026Z,79.15
2019-04-29T16:24:49.814Z,79.65
2019-04-29T16:27:19.270Z,79.58
2019-04-29T16:29:51.598Z,80.71
2019-04-29T16:32:33.584Z,80.15
2019-04-29T16:35:03.110Z,80.54
2019-04-29T16:37:33.379Z,80.75
2019-04-29T16:40:02.946Z,81.23
2019-04-29T16:42:49.083Z,80.64
2019-04-29T16:45:19.176Z,81.11
2019-04-29T16:47:48.800Z,81.11
2019-04-29T16:50:18.216Z,81.04
2019-04-29T16:52:47.632Z,79.75
2019-04-29T16:55:17.217Z,79.47
2019-04-29T16:57:46.649Z,80.02
2019-04-29T17:00:18.060Z,79.54
2019-04-29T17:02:47.617Z,80.13
2019-04-29T17:05:17.249Z,79.17
2019-04-29T17:07:46.756Z,80.45
2019-04-29T17:10:24.883Z,80.06
2019-04-29T17:12:54.447Z,80.15
2019-04-29T17:15:26.068Z,80.25
2019-04-29T17:17:55.755Z,80.65
2019-04-29T17:20:25.648Z,80.75
2019-04-29T17:22:55.131Z,81.17
2019-04-29T17:25:24.745Z,81.07
2019-04-29T17:27:58.516Z,80.90
2019-04-29T17:30:46.693Z,81.64
2019-04-29T17:33:26.223Z,80.55
2019-04-29T17:35:47.790Z,80.94
2019-04-29T17:38:17.815Z,81.76
2019-04-29T17:40:51.112Z,81.31
2019-04-29T17:43:21.406Z,82.06
2019-04-29T17:46:08.840Z,81.96
2019-04-29T17:48:39.976Z,81.79
2019-04-29T17:51:11.325Z,82.19
2019-04-29T17:53:46.025Z,81.98
2019-04-29T17:56:17.266Z,81.96
2019-04-29T17:58:53.869Z,82.48
2019-04-29T18:01:43.303Z,82.59
2019-04-29T18:04:22.338Z,82.03
2019-04-29T18:07:08.295Z,82.65
2019-04-29T18:09:29.683Z,82.48
2019-04-29T18:12:00.196Z,82.68
2019-04-29T18:14:36.532Z,83.06
2019-04-29T18:17:00.920Z,82.77
2019-04-29T18:19:34.856Z,82.45
2019-04-29T18:22:07.863Z,82.89
2019-04-29T18:24:55.465Z,82.43
2019-04-29T18:27:29.284Z,82.29
2019-04-29T18:29:58.815Z,82.53
2019-04-29T18:32:35.596Z,82.40
2019-04-29T18:35:01.842Z,82.37
2019-04-29T18:37:36.951Z,83.27
2019-04-29T18:40:03.579Z,83.56
2019-04-29T18:42:33.129Z,84.02
2019-04-29T18:45:05.006Z,83.90
2019-04-29T18:47:36.434Z,84.25
2019-04-29T18:50:08.764Z,84.11
2019-04-29T18:52:38.191Z,84.87
2019-04-29T18:55:09.134Z,85.20
2019-04-29T18:57:38.556Z,84.96
2019-04-29T19:00:11.995Z,84.97
2019-04-29T19:02:45.366Z,85.40
2019-04-29T19:05:18.601Z,85.89
2019-04-29T19:07:55.140Z,86.04
2019-04-29T19:10:32.000Z,86.42
2019-04-29T19:12:59.761Z,86.24
2019-04-29T19:15:25.614Z,86.31
2019-04-29T19:18:01.339Z,86.46
2019-04-29T19:20:26.528Z,86.63
2019-04-29T19:23:05.884Z,86.45
2019-04-29T19:25:27.287Z,86.86
2019-04-29T19:27:56.772Z,87.14
2019-04-29T19:30:29.097Z,87.01
2019-04-29T19:33:00.346Z,87.33
2019-04-29T19:35:29.505Z,87.02
2019-04-29T19:38:00.025Z,87.10
2019-04-29T19:40:30.502Z,87.13
2019-04-29T19:43:00.667Z,87.52
2019-04-29T19:45:30.168Z,87.23
2019-04-29T19:48:00.408Z,87.53
2019-04-29T19:50:29.877Z,87.49
2019-04-29T19:53:00.771Z,87.85
2019-04-29T19:55:33.142Z,87.50
2019-04-29T19:58:02.208Z,87.87
2019-04-29T20:00:32.432Z,87.87
2019-04-29T20:03:02.741Z,88.19
2019-04-29T20:05:39.691Z,87.91
2019-04-29T20:08:08.529Z,87.98
2019-04-29T20:10:46.312Z,87.73
2019-04-29T20:13:11.035Z,87.95
2019-04-29T20:15:51.647Z,88.00
2019-04-29T20:18:41.984Z,87.97
2019-04-29T20:21:25.082Z,87.99
2019-04-29T20:23:53.247Z,87.55
2019-04-29T20:26:28.970Z,88.03
2019-04-29T20:28:55.680Z,87.87
2019-04-29T20:31:26.229Z,88.30
2019-04-29T20:33:58.604Z,88.44
2019-04-29T20:36:38.361Z,88.23
2019-04-29T20:39:00.061Z,88.22
2019-04-29T20:41:40.602Z,88.60
2019-04-29T20:44:05.767Z,88.42
2019-04-29T20:46:44.660Z,88.39
2019-04-29T20:49:05.716Z,88.52
2019-04-29T20:51:48.798Z,88.50
2019-04-29T20:54:15.850Z,88.52
2019-04-29T20:56:41.805Z,88.76
2019-04-29T20:59:12.986Z,88.73
2019-04-29T21:01:47.160Z,88.78
2019-04-29T21:04:30.594Z,88.69
2019-04-29T21:06:59.835Z,88.59
2019-04-29T21:09:22.061Z,88.69
2019-04-29T21:12:09.986Z,88.81
2019-04-29T21:14:46.815Z,89.07
2019-04-29T21:17:27.967Z,88.89
2019-04-29T21:19:49.172Z,88.67
2019-04-29T21:22:23.465Z,88.43
2019-04-29T21:24:53.842Z,88.86
2019-04-29T21:27:22.483Z,89.02
2019-04-29T21:29:54.032Z,89.10
2019-04-29T21:32:25.594Z,89.25
2019-04-29T21:34:56.387Z,89.05
2019-04-29T21:37:30.400Z,88.98
2019-04-29T21:40:01.485Z,89.31
2019-04-29T21:42:35.285Z,89.52
2019-04-29T21:45:08.763Z,89.47
2019-04-29T21:47:44.822Z,89.37
2019-04-29T21:50:10.452Z,89.29
2019-04-29T21:52:39.857Z,89.82
2019-04-29T21:55:09.759Z,90.03
2019-04-29T21:57:39.158Z,89.92
2019-04-29T22:00:11.703Z,90.15
2019-04-29T22:02:45.506Z,90.55
2019-04-29T22:05:14.754Z,90.55
2019-04-29T22:07:47.385Z,90.26
2019-04-29T22:10:19.821Z,90.19
2019-04-29T22:12:50.849Z,89.99
2019-04-29T22:15:30.696Z,90.29
2019-04-29T22:17:58.485Z,90.26
2019-04-29T22:20:26.536Z,90.46
2019-04-29T22:22:56.127Z,90.51
2019-04-29T22:25:27.099Z,90.69
2019-04-29T22:27:57.106Z,90.60
2019-04-29T22:30:26.676Z,90.72
2019-04-29T22:32:58.773Z,90.97
2019-04-29T22:35:28.096Z,91.01
2019-04-29T22:37:59.308Z,90.96
2019-04-29T22:40:28.743Z,90.98
2019-04-29T22:43:17.825Z,90.97
2019-04-29T22:45:47.334Z,90.84
2019-04-29T22:48:19.540Z,90.89
2019-04-29T22:50:47.885Z,91.16
2019-04-29T22:53:17.336Z,91.33
2019-04-29T22:55:46.782Z,91.27
2019-04-29T22:58:16.217Z,91.19
2019-04-29T23:00:45.676Z,90.88
2019-04-29T23:03:15.183Z,91.37
2019-04-29T23:05:46.160Z,91.33
2019-04-29T23:08:15.763Z,91.29
2019-04-29T23:10:45.641Z,91.53
2019-04-29T23:13:15.353Z,91.25
2019-04-29T23:15:45.770Z,91.33
2019-04-29T23:18:24.744Z,91.39
2019-04-29T23:21:04.006Z,91.14
2019-04-29T23:23:40.477Z,91.03
2019-04-29T23:26:10.018Z,91.20
2019-04-29T23:28:40.990Z,91.23
2019-04-29T23:31:10.395Z,91.12
2019-04-29T23:33:40.129Z,90.92
2019-04-29T23:36:13.648Z,91.07
2019-04-29T23:38:42.751Z,91.09
2019-04-29T23:41:12.529Z,90.98
2019-04-29T23:43:41.995Z,90.87
2019-04-29T23:46:11.683Z,90.62
2019-04-29T23:48:41.093Z,90.70
2019-04-29T23:51:10.667Z,90.70
2019-04-29T23:53:40.144Z,90.89
2019-04-29T23:56:09.953Z,90.92
2019-04-29T23:58:42.560Z,91.06
